Flight Track Log - Related Links

Times and Time Zones

All times are in EDT time to prevent confusion due to time zone crossing. See the UAL118 flight status page for this flight to view local times or setup timezone preferences in your user account.


Time Position Orientation Groundspeed Altitude Reporting Facility
EDT Latitude Longitude Course Direction KTS MPH feet Rate Location/Type
Fri 03:19:51 AM 50.3610 7.6600 336° Northwest 366 421 18,200  Level FlightAware ADS-B
Fri 03:20:31 AM 50.4250 7.6170 337° Northwest 373 429 19,600 1,950 Climbing FlightAware ADS-B
Fri 03:21:11 AM 50.4900 7.5720 336° Northwest 390 449 20,800 1,835 Climbing FlightAware ADS-B
Fri 03:21:56 AM 50.5630 7.5170 334° Northwest 390 449 22,200 1,765 Climbing FlightAware ADS-B
Fri 03:22:36 AM 50.6260 7.4550 328° Northwest 403 464 23,300 1,694 Climbing FlightAware ADS-B
Fri 03:23:21 AM 50.6960 7.3820 327° Northwest 405 466 24,600 1,624 Climbing FlightAware ADS-B
Fri 03:24:01 AM 50.7600 7.3160 327° Northwest 421 484 25,600 1,412 Climbing FlightAware ADS-B
Fri 03:24:46 AM 50.8360 7.2370 327° Northwest 423 487 26,600 1,412 Climbing FlightAware ADS-B
Fri 03:25:26 AM 50.9030 7.1680 327° Northwest 431 496 27,600 1,350 Climbing FlightAware ADS-B
Fri 03:26:06 AM 50.9610 7.0830 317° Northwest 425 489 28,400 1,341 Climbing FlightAware ADS-B
Fri 03:26:51 AM 50.9910 6.9530 290° West 424 488 29,500 1,341 Climbing FlightAware ADS-B
Fri 03:27:31 AM 51.0120 6.8360 286° West 429 494 30,300 988 Climbing FlightAware ADS-B
Fri 03:28:16 AM 51.0360 6.6940 285° West 440 506 30,900 1,341 Climbing FlightAware ADS-B
Fri 03:28:56 AM 51.0580 6.5690 286° West 430 495 32,200 1,412 Climbing FlightAware ADS-B
Fri 03:29:41 AM 51.0810 6.4330 285° West 435 501 32,900 1,059 Climbing FlightAware ADS-B
Fri 03:30:21 AM 51.1020 6.3120 285° West 435 501 33,700 900 Climbing FlightAware ADS-B
Fri 03:31:01 AM 51.1230 6.1890 285° West 437 503 34,100 282 Climbing FlightAware ADS-B
Fri 03:31:46 AM 51.1470 6.0460 285° West 438 504 34,100  Level FlightAware ADS-B
Fri 03:32:26 AM 51.1840 5.9330 298° West 446 513 34,100  Level FlightAware ADS-B
Fri 03:33:11 AM 51.2490 5.8230 313° West 452 520 34,100  Level FlightAware ADS-B
Fri 03:33:51 AM 51.3090 5.7340 317° Northwest 454 522 34,100  Level FlightAware ADS-B
Fri 03:34:31 AM 51.3700 5.6410 316° Northwest 453 521 34,100  Level FlightAware ADS-B
Fri 03:35:16 AM 51.4380 5.5340 316° Northwest 453 521 34,100  Level FlightAware ADS-B
Fri 03:35:56 AM 51.4990 5.4400 316° Northwest 452 520 34,100  Level FlightAware ADS-B
Fri 03:36:41 AM 51.5650 5.3370 316° Northwest 453 521 34,100 -1,524 Level FlightAware ADS-B
Fri 03:36:59 AM 51.5938 5.2929 316° Northwest 456 525 32,500  Descending FlightAware UK
Fri 03:37:21 AM 51.6220 5.2470 316° Northwest 453 521 34,100 1,433 Climbing FlightAware ADS-B
Fri 03:38:06 AM 51.6900 5.1410 316° Northwest 453 521 34,100  Level FlightAware ADS-B
Fri 03:38:46 AM 51.7490 5.0480 316° Northwest 454 522 34,100  Level FlightAware ADS-B
Fri 03:39:26 AM 51.8120 4.9490 316° Northwest 454 522 34,100 -1,574 Level FlightAware ADS-B
Fri 03:39:47 AM 51.8476 4.9002 316° Northwest 456 525 32,500  Descending FlightAware UK
Fri 03:40:11 AM 51.8790 4.8440 316° Northwest 455 524 34,100  Climbing FlightAware ADS-B
Fri 03:40:47 AM 51.9379 4.7581 316° Northwest 458 527 32,500  Descending FlightAware UK
Fri 03:40:51 AM 51.9390 4.7480 316° Northwest 456 525 34,100  Climbing FlightAware ADS-B
Fri 03:41:11 AM 51.9742 4.7010 316° Northwest 458 527 32,500 -2,526 Descending FlightAware UK
Fri 03:41:29 AM 52.0001 4.6566 313° West 458 527 32,500 4,800 Level FlightAware UK
Fri 03:41:31 AM 52.0020 4.6470 313° West 458 527 34,100  Climbing FlightAware ADS-B
Fri 03:41:47 AM 52.0280 4.6144 313° West 458 527 32,500 -2,824 Descending FlightAware UK
Fri 03:42:05 AM 52.0545 4.5705 314° West 458 527 32,500 3,310 Level FlightAware UK
Fri 03:42:16 AM 52.0680 4.5420 314° West 458 527 34,100  Climbing FlightAware ADS-B
Fri 03:42:41 AM 52.1092 4.4844 314° West 460 529 32,500  Descending FlightAware UK
Fri 03:42:56 AM 52.1260 4.4480 314° West 458 527 34,100 1,600 Climbing FlightAware ADS-B
Fri 03:43:41 AM 52.1950 4.3370 315° West 458 527 34,100  Level FlightAware ADS-B
Fri 03:44:21 AM 52.2570 4.2360 315° West 458 527 34,100 -1,455 Level FlightAware ADS-B
Fri 03:44:47 AM 52.2980 4.1785 315° West 464 534 32,500  Descending FlightAware UK
Fri 03:45:06 AM 52.3240 4.1270 315° West 458 527 34,100  Climbing FlightAware ADS-B
Fri 03:45:23 AM 52.3518 4.0906 315° West 462 532 32,500 -2,743 Descending FlightAware UK
Fri 03:45:41 AM 52.3785 4.0465 315° West 462 532 32,500 5,333 Level FlightAware UK
Fri 03:45:41 AM 52.3780 4.0400 315° West 458 527 34,100 2,133 Climbing FlightAware ADS-B
Fri 03:46:26 AM 52.4430 3.9320 315° West 458 527 34,100  Level FlightAware ADS-B
Fri 03:47:11 AM 52.5120 3.8190 315° West 458 527 34,100  Level FlightAware ADS-B
Fri 03:47:51 AM 52.5710 3.7210 315° West 458 527 34,100 -1,600 Level FlightAware ADS-B
Fri 03:48:11 AM 52.6017 3.6781 315° West 462 532 32,500  Descending FlightAware UK
Fri 03:48:31 AM 52.6300 3.6230 315° West 457 526 34,100  Climbing FlightAware ADS-B
Fri 03:48:47 AM 52.6551 3.5892 315° West 460 529 32,500  Descending FlightAware UK
Fri 03:49:16 AM 52.6930 3.5170 315° West 456 525 34,100  Climbing FlightAware ADS-B
Fri 03:49:35 AM 52.7259 3.4704 315° West 460 529 32,500  Descending FlightAware UK
Fri 03:49:56 AM 52.7560 3.4110 315° West 456 525 34,100 1,574 Climbing FlightAware ADS-B
Fri 03:50:36 AM 52.8150 3.3120 315° West 456 525 34,100 -1,391 Level FlightAware ADS-B
Fri 03:51:05 AM 52.8579 3.2475 315° West 460 529 32,500  Descending FlightAware UK
Fri 03:51:16 AM 52.8730 3.2130 315° West 455 524 34,100  Climbing FlightAware ADS-B
Fri 03:51:35 AM 52.9016 3.1727 315° West 456 525 32,500  Descending FlightAware UK
Fri 03:52:06 AM 52.9310 3.0730 315° West 443 510 34,100 1,352 Climbing FlightAware ADS-B
Fri 03:52:46 AM 52.9490 2.9420 283° West 438 504 34,100 -1,477 Level FlightAware ADS-B
Fri 03:53:11 AM 52.9566 2.8656 283° West 458 527 32,500  Descending FlightAware UK
Fri 03:53:26 AM 52.9630 2.8100 283° West 439 505 34,100  Climbing FlightAware ADS-B
Fri 03:53:41 AM 52.9668 2.7662 283° West 460 529 32,500 -2,909 Descending FlightAware UK
Fri 03:53:59 AM 52.9731 2.7065 280° West 460 529 32,500 3,200 Level FlightAware UK
Fri 03:54:11 AM 52.9780 2.6650 280° West 438 504 34,100  Climbing FlightAware ADS-B
Fri 03:54:29 AM 52.9839 2.6073 280° West 458 527 32,500  Descending FlightAware UK
Fri 03:54:51 AM 52.9920 2.5330 280° West 438 504 34,100  Climbing FlightAware ADS-B
Fri 03:55:16 AM 53.0009 2.4492 280° West 456 525 32,500  Descending FlightAware UK
Fri 03:55:36 AM 53.0090 2.3800 280° West 438 504 34,100  Climbing FlightAware ADS-B
Fri 03:55:52 AM 53.0136 2.3301 280° West 458 527 32,500 -2,824 Descending FlightAware UK
Fri 03:56:10 AM 53.0199 2.2710 280° West 456 525 32,500 4,000 Level FlightAware UK
Fri 03:56:16 AM 53.0220 2.2490 280° West 439 505 34,100  Climbing FlightAware ADS-B
Fri 03:56:34 AM 53.0281 2.1913 280° West 456 525 32,500 -2,667 Descending FlightAware UK
Fri 03:56:52 AM 53.0345 2.1315 280° West 456 525 32,500 4,364 Level FlightAware UK
Fri 03:56:56 AM 53.0360 2.1190 280° West 439 505 34,100  Climbing FlightAware ADS-B
Fri 03:57:16 AM 53.0430 2.0518 280° West 456 525 32,500 -2,526 Descending FlightAware UK
Fri 03:57:34 AM 53.0491 1.9926 280° West 456 525 32,500 3,840 Level FlightAware UK
Fri 03:57:41 AM 53.0520 1.9640 280° West 440 506 34,100 7,385 Climbing FlightAware ADS-B
Fri 03:57:47 AM 53.0548 1.9416 282° West 440 506 34,100 -3,310 Level FlightAware ADS-B
Fri 03:58:10 AM 53.0614 1.8721 282° West 458 527 32,500  Descending FlightAware UK
Fri 03:58:21 AM 53.0660 1.8297 282° West 441 507 34,100  Climbing FlightAware ADS-B
Fri 03:58:40 AM 53.0714 1.7726 282° West 458 527 32,500  Descending FlightAware UK
Fri 03:58:59 AM 53.0787 1.7016 282° West 441 507 34,100 1,959 Climbing FlightAware ADS-B
Fri 03:59:29 AM 53.0889 1.6009 280° West 441 507 34,100 -2,043 Level FlightAware ADS-B
Fri 03:59:46 AM 53.0936 1.5520 280° West 458 527 32,500  Descending FlightAware UK
Fri 04:00:03 AM 53.1002 1.4888 280° West 442 509 34,100 2,043 Climbing FlightAware ADS-B
Fri 04:00:33 AM 53.1103 1.3878 279° West 442 509 34,100 -1,959 Level FlightAware ADS-B
Fri 04:00:52 AM 53.1160 1.3320 279° West 458 527 32,500  Descending FlightAware UK
Fri 04:01:03 AM 53.1201 1.2874 279° West 443 510 34,100  Climbing FlightAware ADS-B
Fri 04:01:22 AM 53.1256 1.2315 279° West 458 527 32,500  Descending FlightAware UK
Fri 04:01:34 AM 53.1302 1.1815 279° West 443 510 34,100  Climbing FlightAware ADS-B
Fri 04:01:52 AM 53.1355 1.1308 279° West 458 527 32,500  Descending FlightAware UK
Fri 04:02:05 AM 53.1403 1.0800 279° West 444 511 34,100  Climbing FlightAware ADS-B
Fri 04:02:22 AM 53.1454 1.0306 279° West 460 529 32,500  Descending FlightAware UK
Fri 04:02:36 AM 53.1503 0.9750 279° West 445 512 34,100  Climbing FlightAware ADS-B
Fri 04:02:51 AM 53.1553 0.9301 279° West 460 529 32,500  Descending FlightAware UK
Fri 04:03:06 AM 53.1601 0.8734 279° West 445 512 34,100  Climbing FlightAware ADS-B
Fri 04:03:27 AM 53.1671 0.8083 279° West 460 529 32,500  Descending FlightAware UK
Fri 04:03:36 AM 53.1697 0.7716 279° West 444 511 34,100  Climbing FlightAware ADS-B
Fri 04:03:52 AM 53.1748 0.7265 279° West 460 529 32,500  Descending FlightAware UK
Fri 04:04:07 AM 53.1795 0.6664 279° West 445 512 34,100  Climbing FlightAware ADS-B
Fri 04:04:27 AM 53.1862 0.6060 279° West 462 532 32,500  Descending FlightAware UK
Fri 04:04:42 AM 53.1903 0.5483 279° West 444 511 34,100 2,000 Climbing FlightAware ADS-B
Fri 04:05:15 AM 53.2016 0.4372 280° West 446 513 34,100 -1,684 Level FlightAware ADS-B
Fri 04:05:39 AM 53.2123 0.3637 280° West 462 532 32,500  Descending FlightAware UK
Fri 04:05:48 AM 53.2155 0.3266 280° West 445 512 34,100 2,341 Climbing FlightAware ADS-B
Fri 04:06:20 AM 53.2284 0.2207 282° West 445 512 34,100 -1,882 Level FlightAware ADS-B
Fri 04:06:39 AM 53.2371 0.1623 282° West 462 532 32,500  Descending FlightAware UK
Fri 04:06:50 AM 53.2403 0.1179 282° West 445 512 34,100  Climbing FlightAware ADS-B
Fri 04:07:09 AM 53.2487 0.0617 282° West 462 532 32,500  Descending FlightAware UK
Fri 04:07:22 AM 53.2523 0.0115 282° West 446 513 34,100 2,133 Climbing FlightAware ADS-B
Fri 04:07:54 AM 53.2641 -0.0944 281° West 445 512 34,100  Level FlightAware ADS-B
Fri 04:08:24 AM 53.2755 -0.1962 281° West 445 512 34,100 -2,133 Level FlightAware ADS-B
Fri 04:08:39 AM 53.2827 -0.2419 281° West 464 534 32,500  Descending FlightAware UK
Fri 04:08:54 AM 53.2868 -0.2994 281° West 445 512 34,100  Climbing FlightAware ADS-B
Fri 04:09:21 AM 53.2985 -0.3838 281° West 462 532 32,500  Descending FlightAware UK
Fri 04:09:29 AM 53.2998 -0.4169 281° West 445 512 34,100  Climbing FlightAware ADS-B
Fri 04:09:45 AM 53.3076 -0.4649 281° West 464 534 32,500  Descending FlightAware UK
Fri 04:10:11 AM 53.3150 -0.5530 281° West 445 512 34,100  Climbing FlightAware ADS-B
Fri 04:10:26 AM 53.3232 -0.6063 281° West 464 534 32,500  Descending FlightAware UK
Fri 04:10:45 AM 53.3275 -0.6711 281° West 444 511 34,100  Climbing FlightAware ADS-B
Fri 04:11:02 AM 53.3363 -0.7281 281° West 464 534 32,500  Descending FlightAware UK
Fri 04:11:15 AM 53.3383 -0.7736 281° West 444 511 34,100  Climbing FlightAware ADS-B
Fri 04:11:32 AM 53.3473 -0.8295 281° West 462 532 32,500 -2,743 Descending FlightAware UK
Fri 04:11:50 AM 53.3536 -0.8898 280° West 460 529 32,500  Level FlightAware UK
Fri 04:12:14 AM 53.3622 -0.9709 280° West 458 527 32,500 3,097 Level FlightAware UK
Fri 04:12:21 AM 53.3610 -0.9850 280° West 443 510 34,100 5,333 Climbing FlightAware ADS-B
Fri 04:12:32 AM 53.3656 -1.0322 279° West 444 511 34,100  Level FlightAware ADS-B
Fri 04:13:04 AM 53.3769 -1.1421 280° West 443 510 34,100 -2,000 Level FlightAware ADS-B
Fri 04:13:20 AM 53.3855 -1.1932 280° West 462 532 32,500  Descending FlightAware UK
Fri 04:13:35 AM 53.3875 -1.2465 280° West 442 509 34,100  Climbing FlightAware ADS-B
Fri 04:13:50 AM 53.3960 -1.2939 280° West 462 532 32,500  Descending FlightAware UK
Fri 04:14:13 AM 53.4004 -1.3718 280° West 442 509 34,100  Climbing FlightAware ADS-B
Fri 04:14:32 AM 53.4106 -1.4358 280° West 460 529 32,500  Descending FlightAware UK
Fri 04:14:44 AM 53.4112 -1.4782 280° West 442 509 34,100  Climbing FlightAware ADS-B
Fri 04:15:02 AM 53.4208 -1.5372 280° West 462 532 32,500  Descending FlightAware UK
Fri 04:15:17 AM 53.4220 -1.5872 280° West 442 509 34,100  Climbing FlightAware ADS-B
Fri 04:15:32 AM 53.4310 -1.6385 280° West 460 529 32,500  Descending FlightAware UK
Fri 04:15:47 AM 53.4322 -1.6896 280° West 441 507 34,100  Climbing FlightAware ADS-B
Fri 04:16:08 AM 53.4430 -1.7601 280° West 460 529 32,500  Descending FlightAware UK
Fri 04:16:19 AM 53.4428 -1.7984 280° West 441 507 34,100  Climbing FlightAware ADS-B
Fri 04:16:38 AM 53.4530 -1.8613 280° West 462 532 32,500  Descending FlightAware UK
Fri 04:16:50 AM 53.4530 -1.9032 280° West 441 507 34,100 2,233 Climbing FlightAware ADS-B
Fri 04:17:21 AM 53.4627 -2.0054 279° West 440 506 34,100  Level FlightAware ADS-B
Fri 04:17:52 AM 53.4727 -2.1108 279° West 439 505 34,100  Level FlightAware ADS-B
Fri 04:18:23 AM 53.4825 -2.2136 279° West 439 505 34,100 -1,882 Level FlightAware ADS-B
Fri 04:18:43 AM 53.4938 -2.2839 279° West 460 529 32,500 -2,526 Descending FlightAware UK
Fri 04:19:01 AM 53.4995 -2.3445 279° West 458 527 32,500  Level FlightAware UK
Fri 04:19:19 AM 53.5052 -2.4050 279° West 458 527 32,500 4,800 Level FlightAware UK
Fri 04:19:21 AM 53.5000 -2.4020 279° West 439 505 34,100 4,364 Climbing FlightAware ADS-B
Fri 04:19:41 AM 53.5069 -2.4768 279° West 439 505 34,100 -2,400 Level FlightAware ADS-B
Fri 04:20:01 AM 53.5183 -2.5457 279° West 460 529 32,500  Descending FlightAware UK
Fri 04:20:21 AM 53.5188 -2.6091 279° West 439 505 34,100  Climbing FlightAware ADS-B
Fri 04:20:37 AM 53.5293 -2.6669 279° West 460 529 32,500  Descending FlightAware UK
Fri 04:20:56 AM 53.5295 -2.7279 279° West 439 505 34,100  Climbing FlightAware ADS-B
Fri 04:21:19 AM 53.5421 -2.8085 279° West 460 529 32,500  Descending FlightAware UK
Fri 04:21:28 AM 53.5389 -2.8349 279° West 439 505 34,100 2,043 Climbing FlightAware ADS-B
Fri 04:22:06 AM 53.5500 -2.9590 279° West 438 504 34,100 -1,684 Level FlightAware ADS-B
Fri 04:22:25 AM 53.5619 -3.0303 279° West 456 525 32,500 -2,595 Descending FlightAware UK
Fri 04:22:43 AM 53.5673 -3.0910 279° West 458 527 32,500 3,692 Level FlightAware UK
Fri 04:22:51 AM 53.5620 -3.1030 279° West 439 505 34,100  Climbing FlightAware ADS-B
Fri 04:23:07 AM 53.5744 -3.1720 279° West 458 527 32,500  Descending FlightAware UK
Fri 04:23:31 AM 53.5740 -3.2410 279° West 440 506 34,100  Climbing FlightAware ADS-B
Fri 04:23:49 AM 53.5865 -3.3144 279° West 458 527 32,500 -2,667 Descending FlightAware UK
Fri 04:24:07 AM 53.5916 -3.3748 278° West 456 525 32,500 3,556 Level FlightAware UK
Fri 04:24:16 AM 53.5870 -3.3890 278° West 441 507 34,100 1,959 Climbing FlightAware ADS-B
Fri 04:24:56 AM 53.5980 -3.5270 278° West 442 509 34,100 -1,391 Level FlightAware ADS-B
Fri 04:25:25 AM 53.6138 -3.6401 278° West 460 529 32,500  Descending FlightAware UK
Fri 04:25:36 AM 53.6080 -3.6610 278° West 442 509 34,100  Climbing FlightAware ADS-B
Fri 04:26:01 AM 53.6201 -3.7628 278° West 464 534 32,500  Descending FlightAware UK
Fri 04:26:21 AM 53.6160 -3.8200 278° West 441 507 34,100 1,600 Climbing FlightAware ADS-B
Fri 04:27:01 AM 53.6210 -3.9520 274° West 439 505 34,100 -1,500 Level FlightAware ADS-B
Fri 04:27:25 AM 53.6316 -4.0496 274° West 460 529 32,500  Descending FlightAware UK
Fri 04:27:41 AM 53.6260 -4.0840 274° West 439 505 34,100  Climbing FlightAware ADS-B
Fri 04:28:01 AM 53.6365 -4.1721 274° West 460 529 32,500 -2,526 Descending FlightAware UK
Fri 04:28:19 AM 53.6389 -4.2334 274° West 460 529 32,500 3,840 Level FlightAware UK
Fri 04:28:26 AM 53.6320 -4.2470 274° West 439 505 34,100  Climbing FlightAware ADS-B
Fri 04:28:48 AM 53.6427 -4.3351 274° West 462 532 32,500  Descending FlightAware UK
Fri 04:29:11 AM 53.6380 -4.3990 274° West 439 505 34,100  Climbing FlightAware ADS-B
Fri 04:29:30 AM 53.6478 -4.4783 274° West 464 534 32,500 -2,595 Descending FlightAware UK
Fri 04:29:48 AM 53.6500 -4.5396 274° West 462 532 32,500 4,571 Level FlightAware UK
Fri 04:29:51 AM 53.6420 -4.5350 274° West 438 504 34,100  Climbing FlightAware ADS-B
Fri 04:30:06 AM 53.6522 -4.6009 274° West 460 529 32,500  Descending FlightAware UK
Fri 04:30:31 AM 53.6470 -4.6730 274° West 438 504 34,100  Climbing FlightAware ADS-B
Fri 04:30:54 AM 53.6578 -4.7643 274° West 462 532 32,500  Descending FlightAware UK
Fri 04:31:16 AM 53.6520 -4.8260 274° West 438 504 34,100  Climbing FlightAware ADS-B
Fri 04:31:36 AM 53.6625 -4.9071 274° West 462 532 32,500 -2,526 Descending FlightAware UK
Fri 04:31:54 AM 53.6644 -4.9683 273° West 460 529 32,500 4,800 Level FlightAware UK
Fri 04:31:56 AM 53.6560 -4.9550 273° West 438 504 34,100  Climbing FlightAware ADS-B
Fri 04:32:12 AM 53.6663 -5.0289 273° West 462 532 32,500 -2,824 Descending FlightAware UK
Fri 04:32:30 AM 53.6682 -5.0908 273° West 462 532 32,500 3,310 Level FlightAware UK
Fri 04:32:41 AM 53.6610 -5.1130 273° West 437 503 34,100  Climbing FlightAware ADS-B
Fri 04:33:00 AM 53.6713 -5.1920 273° West 460 529 32,500 -2,595 Descending FlightAware UK
Fri 04:33:18 AM 53.6731 -5.2537 273° West 460 529 32,500 4,571 Level FlightAware UK
Fri 04:33:21 AM 53.6650 -5.2480 273° West 436 502 34,100  Climbing FlightAware ADS-B
Fri 04:33:36 AM 53.6748 -5.3140 273° West 458 527 32,500 -2,909 Descending FlightAware UK
Fri 04:33:54 AM 53.6767 -5.3750 273° West 460 529 32,500 3,840 Level FlightAware UK
Fri 04:34:01 AM 53.6690 -5.3810 273° West 436 502 34,100  Climbing FlightAware ADS-B
Fri 04:34:18 AM 53.6792 -5.4562 273° West 460 529 32,500 -2,743 Descending FlightAware UK
Fri 04:34:36 AM 53.6890 -5.5147 286° West 462 532 32,500 3,429 Level FlightAware UK
Fri 04:34:46 AM 53.6880 -5.5360 286° West 434 499 34,100  Climbing FlightAware ADS-B
Fri 04:35:06 AM 53.7157 -5.6054 286° West 458 527 32,500 -2,526 Descending FlightAware UK
Fri 04:35:24 AM 53.7338 -5.6576 300° West 460 529 32,500 4,800 Level FlightAware UK
Fri 04:35:26 AM 53.7250 -5.6500 300° West 433 498 34,100  Climbing FlightAware ADS-B
Fri 04:35:42 AM 53.7484 -5.7126 300° West 458 527 32,500  Descending FlightAware UK
Fri 04:35:56 AM 53.7430 -5.7400 300° West 432 497 34,100  Climbing FlightAware ADS-B
Fri 04:36:12 AM 53.7547 -5.8131 300° West 456 525 32,500 -2,824 Descending FlightAware UK
Fri 04:36:30 AM 53.7580 -5.8733 275° West 458 527 32,500 4,000 Level FlightAware UK
Fri 04:36:36 AM 53.7510 -5.8780 275° West 433 498 34,100  Climbing FlightAware ADS-B
Fri 04:36:54 AM 53.7652 -5.9531 275° West 460 529 32,500 -2,667 Descending FlightAware UK
Fri 04:37:12 AM 53.7712 -6.0128 280° West 460 529 32,500 4,364 Level FlightAware UK
Fri 04:37:16 AM 53.7640 -6.0130 280° West 431 496 34,100  Climbing FlightAware ADS-B
Fri 04:37:36 AM 53.7794 -6.0922 280° West 460 529 32,500 -2,526 Descending FlightAware UK
Fri 04:37:54 AM 53.7849 -6.1512 279° West 460 529 32,500 3,840 Level FlightAware UK
Fri 04:38:01 AM 53.7780 -6.1630 279° West 431 496 34,100  Climbing FlightAware ADS-B
Fri 04:38:18 AM 53.7899 -6.2314 279° West 454 522 32,500 -2,743 Descending FlightAware UK
Fri 04:38:36 AM 53.7936 -6.2914 276° West 456 525 32,500 4,174 Level FlightAware UK
Fri 04:38:41 AM 53.7860 -6.2910 276° West 431 496 34,100  Climbing FlightAware ADS-B
Fri 04:39:00 AM 53.7985 -6.3717 276° West 458 527 32,500 -2,595 Descending FlightAware UK
Fri 04:39:18 AM 53.8020 -6.4319 276° West 460 529 32,500 3,692 Level FlightAware UK
Fri 04:39:26 AM 53.7950 -6.4480 276° West 432 497 34,100  Climbing FlightAware ADS-B
Fri 04:39:42 AM 53.8068 -6.5121 276° West 458 527 32,500 -2,824 Descending FlightAware UK
Fri 04:40:00 AM 53.8103 -6.5722 276° West 458 527 32,500 4,000 Level FlightAware UK
Fri 04:40:06 AM 53.8030 -6.5780 276° West 431 496 34,100  Climbing FlightAware ADS-B
Fri 04:40:24 AM 53.8149 -6.6524 276° West 456 525 32,500 -2,667 Descending FlightAware UK
Fri 04:40:42 AM 53.8183 -6.7125 276° West 458 527 32,500 4,364 Level FlightAware UK
Fri 04:40:46 AM 53.8110 -6.7070 276° West 430 495 34,100  Climbing FlightAware ADS-B
Fri 04:41:06 AM 53.8228 -6.7926 276° West 458 527 32,500 -2,526 Descending FlightAware UK
Fri 04:41:24 AM 53.8262 -6.8527 275° West 456 525 32,500 3,840 Level FlightAware UK
Fri 04:41:31 AM 53.8190 -6.8640 275° West 431 496 34,100  Climbing FlightAware ADS-B
Fri 04:41:48 AM 53.8306 -6.9329 275° West 464 534 32,500  Descending FlightAware UK
Fri 04:42:11 AM 53.8270 -6.9970 275° West 429 494 34,100  Climbing FlightAware ADS-B
Fri 04:42:30 AM 53.8383 -7.0730 275° West 462 532 32,500 -2,595 Descending FlightAware UK
Fri 04:42:48 AM 53.8415 -7.1329 275° West 462 532 32,500 3,692 Level FlightAware UK
Fri 04:42:56 AM 53.8350 -7.1460 275° West 428 493 34,100  Climbing FlightAware ADS-B
Fri 04:43:12 AM 53.8457 -7.2126 275° West 462 532 32,500 -2,824 Descending FlightAware UK
Fri 04:43:30 AM 53.8489 -7.2723 275° West 462 532 32,500 4,000 Level FlightAware UK
Fri 04:43:36 AM 53.8420 -7.2770 275° West 426 490 34,100  Climbing FlightAware ADS-B
Fri 04:43:54 AM 53.8530 -7.3509 275° West 456 525 32,500 -2,667 Descending FlightAware UK
Fri 04:44:12 AM 53.8559 -7.4102 275° West 458 527 32,500 4,364 Level FlightAware UK
Fri 04:44:16 AM 53.8490 -7.4080 275° West 425 489 34,100  Climbing FlightAware ADS-B
Fri 04:44:36 AM 53.8599 -7.4893 275° West 454 522 32,500 -2,526 Descending FlightAware UK
Fri 04:44:54 AM 53.8629 -7.5485 275° West 456 525 32,500 3,840 Level FlightAware UK
Fri 04:45:01 AM 53.8560 -7.5580 275° West 424 488 34,100  Climbing FlightAware ADS-B
Fri 04:45:18 AM 53.8669 -7.6273 275° West 460 529 32,500 -2,743 Descending FlightAware UK
Fri 04:45:36 AM 53.8697 -7.6864 275° West 460 529 32,500 4,174 Level FlightAware UK
Fri 04:45:41 AM 53.8630 -7.6870 275° West 423 487 34,100  Climbing FlightAware ADS-B
Fri 04:46:00 AM 53.8734 -7.7651 275° West 458 527 32,500 -2,595 Descending FlightAware UK
Fri 04:46:18 AM 53.8762 -7.8240 275° West 456 525 32,500 4,571 Level FlightAware UK
Fri 04:46:21 AM 53.8690 -7.8270 275° West 421 484 34,100  Climbing FlightAware ADS-B
Fri 04:46:36 AM 53.8790 -7.8829 275° West 456 525 32,500 -2,909 Descending FlightAware UK
Fri 04:46:54 AM 53.8818 -7.9417 275° West 454 522 32,500 3,200 Level FlightAware UK
Fri 04:47:06 AM 53.8760 -7.9700 275° West 420 483 34,100  Climbing FlightAware ADS-B
Fri 04:47:24 AM 53.8863 -8.0393 275° West 454 522 32,500 -2,667 Descending FlightAware UK
Fri 04:47:42 AM 53.8889 -8.0979 274° West 456 525 32,500 4,364 Level FlightAware UK
Fri 04:47:46 AM 53.8820 -8.1040 274° West 419 482 34,100  Climbing FlightAware ADS-B
Fri 04:48:06 AM 53.8925 -8.1759 274° West 458 527 32,500 -2,526 Descending FlightAware UK
Fri 04:48:24 AM 53.8950 -8.2344 274° West 458 527 32,500 3,840 Level FlightAware UK
Fri 04:48:31 AM 53.8890 -8.2500 274° West 418 481 34,100  Climbing FlightAware ADS-B
Fri 04:48:48 AM 53.8984 -8.3124 274° West 458 527 32,500 -2,743 Descending FlightAware UK
Fri 04:49:06 AM 53.9009 -8.3708 274° West 458 527 32,500 4,174 Level FlightAware UK
Fri 04:49:11 AM 53.8950 -8.3840 274° West 417 480 34,100  Climbing FlightAware ADS-B
Fri 04:49:30 AM 53.9042 -8.4485 274° West 456 525 32,500 -2,595 Descending FlightAware UK
Fri 04:49:48 AM 53.9066 -8.5066 274° West 456 525 32,500 3,692 Level FlightAware UK
Fri 04:49:56 AM 53.9010 -8.5270 274° West 416 479 34,100  Climbing FlightAware ADS-B
Fri 04:50:12 AM 53.9098 -8.5834 274° West 456 525 32,500 -2,824 Descending FlightAware UK
Fri 04:50:30 AM 53.9121 -8.6415 274° West 456 525 32,500 4,000 Level FlightAware UK
Fri 04:50:36 AM 53.9060 -8.6530 274° West 416 479 34,100  Climbing FlightAware ADS-B
Fri 04:50:54 AM 53.9153 -8.7188 274° West 458 527 32,500  Descending FlightAware UK
Fri 04:51:11 AM 53.9110 -8.7640 274° West 413 475 34,100  Climbing FlightAware ADS-B
Fri 04:51:30 AM 53.9199 -8.8347 274° West 458 527 32,500 -2,595 Descending FlightAware UK
Fri 04:51:48 AM 53.9221 -8.8925 274° West 456 525 32,500 4,571 Level FlightAware UK
Fri 04:51:51 AM 53.9160 -8.8940 274° West 411 473 34,100  Climbing FlightAware ADS-B
Fri 04:52:06 AM 53.9243 -8.9502 274° West 456 525 32,500 -2,909 Descending FlightAware UK
Fri 04:52:24 AM 53.9265 -9.0078 274° West 456 525 32,500 3,200 Level FlightAware UK
Fri 04:52:36 AM 53.9220 -9.0410 274° West 410 472 34,100 2,043 Climbing FlightAware ADS-B
Fri 04:53:11 AM 53.9260 -9.1480 274° West 409 471 34,100  Level FlightAware ADS-B
Fri 04:53:56 AM 53.9310 -9.2940 273° West 407 468 34,100  Level FlightAware ADS-B
Fri 04:54:36 AM 53.9360 -9.4210 274° West 406 467 34,100  Level FlightAware ADS-B
Fri 04:55:41 AM 53.9430 -9.6190 274° West 407 468 34,100  Level FlightAware ADS-B
Fri 04:56:31 AM 53.9480 -9.7830 273° West 405 466 34,100  Level FlightAware ADS-B
Fri 04:57:16 AM 53.9530 -9.9260 273° West 403 464 34,100  Level FlightAware ADS-B
Fri 04:58:01 AM 53.9570 -10.0690 273° West 403 464 34,100  Level FlightAware ADS-B
Fri 04:58:31 AM 53.9600 -10.1590 273° West 402 463 34,100  Level FlightAware ADS-B
Fri 04:59:21 AM 53.9640 -10.3030 273° West 402 463 34,100  Level FlightAware ADS-B
Fri 05:00:06 AM 53.9680 -10.4590 273° West 402 463 34,100  Level FlightAware ADS-B
Fri 05:00:46 AM 53.9710 -10.5880 272° West 403 464 34,100  Level FlightAware ADS-B
Fri 05:01:26 AM 53.9750 -10.7170 273° West 402 463 34,100  Level FlightAware ADS-B
Fri 05:02:11 AM 53.9780 -10.8570 272° West 402 463 34,100  Level FlightAware ADS-B
Fri 05:02:51 AM 53.9810 -10.9840 272° West 402 463 34,100  Level FlightAware ADS-B
Fri 05:03:36 AM 53.9840 -11.1240 272° West 402 463 34,100  Level FlightAware ADS-B
Fri 05:04:16 AM 53.9860 -11.2480 272° West 401 461 34,100  Level FlightAware ADS-B
Fri 05:05:01 AM 53.9890 -11.3830 272° West 401 461 34,100  Level FlightAware ADS-B
Fri 05:05:41 AM 53.9910 -11.5170 272° West 402 463 34,100  Level FlightAware ADS-B
Fri 05:06:16 AM 53.9930 -11.6240 272° West 402 463 34,100  Level FlightAware ADS-B
Fri 05:07:01 AM 53.9960 -11.7690 272° West 403 464 34,100  Level FlightAware ADS-B
Fri 05:07:46 AM 53.9980 -11.9150 271° West 403 464 34,100  Level FlightAware ADS-B
Fri 05:08:26 AM 54.0000 -12.0340 272° West 404 465 34,100  Level FlightAware ADS-B
Fri 05:09:06 AM 54.0010 -12.1500 271° West 404 465 34,100  Level FlightAware ADS-B
Fri 05:09:41 AM 54.0030 -12.2730 272° West 405 466 34,100  Level FlightAware ADS-B
Fri 05:10:26 AM 54.0030 -12.4000 270° West 405 466 34,100  Level FlightAware ADS-B
Fri 05:11:16 AM 54.0060 -12.5740 272° West 406 467 34,100  Level FlightAware ADS-B
Fri 05:11:56 AM 54.0070 -12.7040 271° West 406 467 34,100  Level FlightAware ADS-B
Fri 05:12:36 AM 54.0080 -12.8240 271° West 406 467 34,100  Level FlightAware ADS-B
Fri 05:13:16 AM 54.0080 -12.9580 270° West 405 466 34,100  Level FlightAware ADS-B
Fri 05:14:06 AM 54.0090 -13.1140 271° West 404 465 34,100  Level FlightAware ADS-B
Fri 05:14:46 AM 54.0100 -13.2430 271° West 404 465 34,100  Level FlightAware ADS-B
Fri 05:15:21 AM 54.0100 -13.3550 270° West 404 465 34,100  Level FlightAware ADS-B
Fri 05:16:26 AM 54.0100 -13.5510 270° West 404 465 34,100  Level FlightAware ADS-B
Fri 05:17:01 AM 54.0100 -13.6640 270° West 403 464 34,100  Level FlightAware ADS-B
Fri 05:17:46 AM 54.0100 -13.6640 270° West 402 463 34,100  Level FlightAware ADS-B
Fri 05:18:31 AM 54.0090 -13.7880 269° West 402 463 34,100  Level FlightAware ADS-B
Fri 05:19:11 AM 54.0080 -13.8950 269° West 402 463 34,100  Level FlightAware ADS-B
Fri 05:19:51 AM 54.0070 -14.0030 269° West 402 463 34,100  Level FlightAware ADS-B
Fri 05:20:31 AM 54.0050 -14.1110 268° West 402 463 34,100  Level FlightAware ADS-B
Fri 05:21:11 AM 54.0040 -14.2180 269° West 402 463 34,100  Level FlightAware ADS-B
Fri 05:22:01 AM 54.0030 -14.3530 269° West 402 463 34,100  Level FlightAware ADS-B
Fri 05:22:41 AM 54.0020 -14.4600 269° West 402 463 34,100  Level FlightAware ADS-B
Fri 05:23:21 AM 54.0010 -14.5680 269° West 402 463 34,100  Level FlightAware ADS-B
Fri 05:24:01 AM 54.0000 -14.6750 269° West 402 463 34,100  Level FlightAware ADS-B
Fri 05:24:41 AM 53.9980 -14.7830 268° West 402 463 34,100  Level FlightAware ADS-B
Fri 05:25:31 AM 53.9970 -14.9170 269° West 402 463 34,100  Level FlightAware ADS-B
Fri 05:26:11 AM 53.9960 -15.0250 269° West 402 463 34,100  Level FlightAware ADS-B
Fri 05:26:51 AM 53.9950 -15.1320 269° West 402 463 34,100  Level FlightAware ADS-B
Fri 05:27:31 AM 53.9940 -15.2400 269° West 402 463 34,100 -4 Level FlightAware ADS-B
Fri 05:30:00 AM 54.0206 -15.6954 276° West  Level Estimated
Fri 05:31:00 AM 54.0309 -15.8789 275° West  Level Estimated
Fri 05:32:00 AM 54.0408 -16.0625 275° West  Level Estimated
Fri 05:33:00 AM 54.0505 -16.2462 275° West  Level Estimated
Fri 05:34:00 AM 54.0599 -16.4300 275° West  Level Estimated
Fri 05:35:00 AM 54.0690 -16.6139 275° West  Level Estimated
Fri 05:36:00 AM 54.0779 -16.7978 275° West  Level Estimated
Fri 05:37:00 AM 54.0864 -16.9819 275° West  Level Estimated
Fri 05:38:00 AM 54.0952 -17.1779 274° West  Level Estimated
Fri 05:39:00 AM 54.1037 -17.3739 274° West  Level Estimated
Fri 05:40:00 AM 54.1119 -17.5701 274° West  Level Estimated
Fri 05:41:00 AM 54.1197 -17.7663 274° West  Level Estimated
Fri 05:42:00 AM 54.1272 -17.9626 274° West  Level Estimated
Fri 05:43:00 AM 54.1344 -18.1590 274° West  Level Estimated
Fri 05:44:00 AM 54.1413 -18.3554 274° West  Level Estimated
Fri 05:45:00 AM 54.1479 -18.5519 273° West  Level Estimated
Fri 05:46:00 AM 54.1541 -18.7485 273° West  Level Estimated
Fri 05:47:00 AM 54.1600 -18.9451 273° West  Level Estimated
Fri 05:48:00 AM 54.1656 -19.1418 273° West  Level Estimated
Fri 05:49:00 AM 54.1709 -19.3385 273° West  Level Estimated
Fri 05:50:00 AM 54.1759 -19.5352 273° West  Level Estimated
Fri 05:51:00 AM 54.1805 -19.7321 272° West  Level Estimated
Fri 05:52:00 AM 54.1848 -19.9289 272° West  Level Estimated
Fri 05:52:00 AM 55.0000 -20.0000 284° West 405 466 34,000  Level ETMS Enhanced Traffic Management System
Fri 05:53:00 AM 54.1888 -20.1258 272° West  Level Estimated
Fri 05:54:00 AM 54.1925 -20.3228 272° West  Level Estimated
Fri 05:55:00 AM 54.1959 -20.5197 272° West  Level Estimated
Fri 05:56:00 AM 54.1989 -20.7167 272° West  Level Estimated
Fri 05:57:00 AM 54.2016 -20.9138 271° West  Level Estimated
Fri 05:58:00 AM 55.1850 -21.3398 283° West 405 466 34,000  Level FlightAware Transoceanic
Fri 05:59:00 AM 55.2102 -21.5322 283° West 405 466 34,000  Level FlightAware Transoceanic
Fri 06:00:00 AM 55.2351 -21.7249 283° West 405 466 34,000  Level FlightAware Transoceanic
Fri 06:01:00 AM 55.2597 -21.9178 283° West 405 466 34,000  Level FlightAware Transoceanic
Fri 06:02:00 AM 55.2840 -22.1109 282° West 405 466 34,000  Level FlightAware Transoceanic
Fri 06:03:00 AM 55.3080 -22.3043 282° West 405 466 34,000  Level FlightAware Transoceanic
Fri 06:04:00 AM 55.3317 -22.4979 282° West 405 466 34,000  Level FlightAware Transoceanic
Fri 06:05:00 AM 55.3551 -22.6917 282° West 405 466 34,000  Level FlightAware Transoceanic
Fri 06:06:00 AM 55.3782 -22.8857 282° West 405 466 34,000  Level FlightAware Transoceanic
Fri 06:07:00 AM 55.4010 -23.0800 282° West 405 466 34,000  Level FlightAware Transoceanic
Fri 06:08:00 AM 55.4234 -23.2745 281° West 405 466 34,000  Level FlightAware Transoceanic
Fri 06:09:00 AM 55.4456 -23.4692 281° West 405 466 34,000  Level FlightAware Transoceanic
Fri 06:10:00 AM 55.4674 -23.6642 281° West 405 466 34,000  Level FlightAware Transoceanic
Fri 06:11:00 AM 55.4890 -23.8593 281° West 405 466 34,000  Level FlightAware Transoceanic
Fri 06:12:00 AM 55.5102 -24.0547 281° West 405 466 34,000  Level FlightAware Transoceanic
Fri 06:13:00 AM 55.5311 -24.2502 281° West 405 466 34,000  Level FlightAware Transoceanic
Fri 06:14:00 AM 55.5517 -24.4460 280° West 405 466 34,000  Level FlightAware Transoceanic
Fri 06:15:00 AM 55.5720 -24.6420 280° West 405 466 34,000  Level FlightAware Transoceanic
Fri 06:16:00 AM 55.5920 -24.8382 280° West 405 466 34,000  Level FlightAware Transoceanic
Fri 06:17:00 AM 55.6117 -25.0346 280° West 405 466 34,000  Level FlightAware Transoceanic
Fri 06:18:00 AM 55.6310 -25.2311 280° West 405 466 34,000  Level FlightAware Transoceanic
Fri 06:19:00 AM 55.6501 -25.4279 280° West 405 466 34,000  Level FlightAware Transoceanic
Fri 06:20:00 AM 55.6688 -25.6249 279° West 405 466 34,000  Level FlightAware Transoceanic
Fri 06:21:00 AM 55.6872 -25.8220 279° West 405 466 34,000  Level FlightAware Transoceanic
Fri 06:22:00 AM 55.7053 -26.0194 279° West 405 466 34,000  Level FlightAware Transoceanic
Fri 06:23:00 AM 55.7231 -26.2169 279° West 405 466 34,000  Level FlightAware Transoceanic
Fri 06:24:00 AM 55.7405 -26.4146 279° West 405 466 34,000  Level FlightAware Transoceanic
Fri 06:25:00 AM 55.7577 -26.6124 279° West 405 466 34,000  Level FlightAware Transoceanic
Fri 06:26:00 AM 55.7745 -26.8104 279° West 405 466 34,000  Level FlightAware Transoceanic
Fri 06:27:00 AM 55.7910 -27.0086 278° West 405 466 34,000  Level FlightAware Transoceanic
Fri 06:28:00 AM 55.8072 -27.2070 278° West 405 466 34,000  Level FlightAware Transoceanic
Fri 06:29:00 AM 55.8230 -27.4056 278° West 405 466 34,000  Level FlightAware Transoceanic
Fri 06:30:00 AM 55.8386 -27.6043 278° West 405 466 34,000  Level FlightAware Transoceanic
Fri 06:31:00 AM 55.8538 -27.8031 278° West 405 466 34,000  Level FlightAware Transoceanic
Fri 06:32:00 AM 55.8687 -28.0021 278° West 405 466 34,000  Level FlightAware Transoceanic
Fri 06:33:00 AM 55.8833 -28.2013 277° West 405 466 34,000  Level FlightAware Transoceanic
Fri 06:34:00 AM 55.8975 -28.4006 277° West 405 466 34,000  Level FlightAware Transoceanic
Fri 06:35:00 AM 55.9115 -28.6000 277° West 405 466 34,000  Level FlightAware Transoceanic
Fri 06:36:00 AM 55.9251 -28.7996 277° West 405 466 34,000  Level FlightAware Transoceanic
Fri 06:37:00 AM 55.9384 -28.9994 277° West 405 466 34,000  Level FlightAware Transoceanic
Fri 06:38:00 AM 55.9514 -29.1992 277° West 405 466 34,000  Level FlightAware Transoceanic
Fri 06:39:00 AM 55.9640 -29.3992 276° West 405 466 34,000  Level FlightAware Transoceanic
Fri 06:40:00 AM 55.9763 -29.5994 276° West 405 466 34,000  Level FlightAware Transoceanic
Fri 06:41:00 AM 55.9883 -29.7996 276° West 405 466 34,000 Level FlightAware Transoceanic
Fri 06:42:00 AM 56.0003 -30.0046 276° West  Level FlightAware Approximate
Fri 06:43:00 AM 56.0004 -30.0093 274° West  Level FlightAware Approximate
Fri 06:44:00 AM 56.0085 -30.2150 274° West  Level FlightAware Approximate
Fri 06:45:00 AM 56.0163 -30.4207 274° West  Level FlightAware Approximate
Fri 06:46:00 AM 56.0238 -30.6266 274° West  Level FlightAware Approximate
Fri 06:47:00 AM 56.0309 -30.8325 274° West  Level FlightAware Approximate
Fri 06:48:00 AM 56.0377 -31.0385 273° West  Level FlightAware Approximate
Fri 06:49:00 AM 56.0442 -31.2445 273° West  Level FlightAware Approximate
Fri 06:50:00 AM 56.0503 -31.4507 273° West  Level FlightAware Approximate
Fri 06:51:00 AM 56.0560 -31.6569 273° West  Level FlightAware Approximate
Fri 06:52:00 AM 56.0614 -31.8631 273° West  Level FlightAware Approximate
Fri 06:53:00 AM 56.0665 -32.0694 273° West  Level FlightAware Approximate
Fri 06:54:00 AM 56.0712 -32.2758 272° West  Level FlightAware Approximate
Fri 06:55:00 AM 56.0756 -32.4822 272° West  Level FlightAware Approximate
Fri 06:56:00 AM 56.0796 -32.6886 272° West  Level FlightAware Approximate
Fri 06:57:00 AM 56.0833 -32.8951 272° West  Level FlightAware Approximate
Fri 06:58:00 AM 56.0866 -33.1016 272° West  Level FlightAware Approximate
Fri 06:59:00 AM 56.0896 -33.3082 272° West  Level FlightAware Approximate
Fri 07:00:00 AM 56.0923 -33.5148 271° West  Level FlightAware Approximate
Fri 07:01:00 AM 56.0946 -33.7214 271° West  Level FlightAware Approximate
Fri 07:02:00 AM 56.0966 -33.9280 271° West  Level FlightAware Approximate
Fri 07:03:00 AM 56.0982 -34.1347 271° West  Level FlightAware Approximate
Fri 07:04:00 AM 56.0994 -34.3414 271° West  Level FlightAware Approximate
Fri 07:05:00 AM 56.1004 -34.5481 271° West  Level FlightAware Approximate
Fri 07:06:00 AM 56.1010 -34.7548 270° West  Level FlightAware Approximate
Fri 07:07:00 AM 56.1012 -34.9615 270° West  Level FlightAware Approximate
Fri 07:08:00 AM 56.1011 -35.1682 270° West  Level FlightAware Approximate
Fri 07:09:00 AM 56.1006 -35.3749 270° West  Level FlightAware Approximate
Fri 07:10:00 AM 56.0998 -35.5816 270° West  Level FlightAware Approximate
Fri 07:11:00 AM 56.0987 -35.7882 270° West  Level FlightAware Approximate
Fri 07:12:00 AM 56.0972 -35.9949 269° West  Level FlightAware Approximate
Fri 07:13:00 AM 56.0954 -36.2016 269° West  Level FlightAware Approximate
Fri 07:14:00 AM 56.0932 -36.4082 269° West  Level FlightAware Approximate
Fri 07:15:00 AM 56.0907 -36.6148 269° West  Level FlightAware Approximate
Fri 07:16:00 AM 56.0878 -36.8214 269° West  Level FlightAware Approximate
Fri 07:17:00 AM 56.0846 -37.0279 268° West  Level FlightAware Approximate
Fri 07:18:00 AM 56.0810 -37.2344 268° West  Level FlightAware Approximate
Fri 07:19:00 AM 56.0771 -37.4409 268° West  Level FlightAware Approximate
Fri 07:20:00 AM 56.0729 -37.6473 268° West  Level FlightAware Approximate
Fri 07:21:00 AM 56.0683 -37.8537 268° West  Level FlightAware Approximate
Fri 07:22:00 AM 56.0634 -38.0600 268° West  Level FlightAware Approximate
Fri 07:23:00 AM 56.0581 -38.2663 267° West  Level FlightAware Approximate
Fri 07:24:00 AM 56.0524 -38.4725 267° West  Level FlightAware Approximate
Fri 07:25:00 AM 56.0465 -38.6786 267° West  Level FlightAware Approximate
Fri 07:26:00 AM 56.0402 -38.8847 267° West  Level FlightAware Approximate
Fri 07:27:00 AM 56.0335 -39.0907 267° West  Level FlightAware Approximate
Fri 07:28:00 AM 56.0265 -39.2966 267° West  Level FlightAware Approximate
Fri 07:29:00 AM 56.0192 -39.5025 266° West  Level FlightAware Approximate
Fri 07:30:00 AM 56.0115 -39.7083 266° West  Level FlightAware Approximate
Fri 07:31:00 AM 56.0035 -39.9140 266° West  Level FlightAware Approximate
Fri 07:32:00 AM 55.9824 -40.1157 255° West  Level FlightAware Approximate
Fri 07:33:00 AM 55.9519 -40.3144 255° West  Level FlightAware Approximate
Fri 07:34:00 AM 55.9211 -40.5127 255° West  Level FlightAware Approximate
Fri 07:35:00 AM 55.8900 -40.7108 254° West  Level FlightAware Approximate
Fri 07:36:00 AM 55.8586 -40.9085 254° West  Level FlightAware Approximate
Fri 07:37:00 AM 55.8268 -41.1059 254° West  Level FlightAware Approximate
Fri 07:38:00 AM 55.7948 -41.3029 254° West  Level FlightAware Approximate
Fri 07:39:00 AM 55.7624 -41.4997 254° West  Level FlightAware Approximate
Fri 07:40:00 AM 55.7297 -41.6961 254° West  Level FlightAware Approximate
Fri 07:41:00 AM 55.6967 -41.8922 253° West  Level FlightAware Approximate
Fri 07:42:00 AM 55.6634 -42.0879 253° West  Level FlightAware Approximate
Fri 07:43:00 AM 55.6297 -42.2833 253° West  Level FlightAware Approximate
Fri 07:44:00 AM 55.5958 -42.4784 253° West  Level FlightAware Approximate
Fri 07:45:00 AM 55.5616 -42.6731 253° West  Level FlightAware Approximate
Fri 07:46:00 AM 55.5270 -42.8675 253° West  Level FlightAware Approximate
Fri 07:47:00 AM 55.4921 -43.0616 252° West  Level FlightAware Approximate
Fri 07:48:00 AM 55.4570 -43.2553 252° West  Level FlightAware Approximate
Fri 07:49:00 AM 55.4215 -43.4487 252° West  Level FlightAware Approximate
Fri 07:50:00 AM 55.3857 -43.6417 252° West  Level FlightAware Approximate
Fri 07:51:00 AM 55.3496 -43.8343 252° West  Level FlightAware Approximate
Fri 07:52:00 AM 55.3133 -44.0266 252° West  Level FlightAware Approximate
Fri 07:53:00 AM 55.2766 -44.2186 252° West  Level FlightAware Approximate
Fri 07:54:00 AM 55.2396 -44.4102 251° West  Level FlightAware Approximate
Fri 07:55:00 AM 55.2023 -44.6014 251° West  Level FlightAware Approximate
Fri 07:56:00 AM 55.1647 -44.7923 251° West  Level FlightAware Approximate
Fri 07:57:00 AM 55.1268 -44.9828 251° West  Level FlightAware Approximate
Fri 07:58:00 AM 55.0887 -45.1730 251° West  Level FlightAware Approximate
Fri 07:59:00 AM 55.0505 -45.3630 251° West  Level FlightAware Approximate
Fri 08:00:00 AM 55.0121 -45.5526 251° West  Level FlightAware Approximate
Fri 08:01:00 AM 54.9733 -45.7419 250° West  Level FlightAware Approximate
Fri 08:02:00 AM 54.9342 -45.9307 250° West  Level FlightAware Approximate
Fri 08:03:00 AM 54.8948 -46.1193 250° West  Level FlightAware Approximate
Fri 08:04:00 AM 54.8552 -46.3074 250° West  Level FlightAware Approximate
Fri 08:05:00 AM 54.8152 -46.4952 250° West  Level FlightAware Approximate
Fri 08:06:00 AM 54.7750 -46.6825 250° West  Level FlightAware Approximate
Fri 08:07:00 AM 54.7345 -46.8696 249° West  Level FlightAware Approximate
Fri 08:08:00 AM 54.6936 -47.0562 249° West  Level FlightAware Approximate
Fri 08:09:00 AM 54.6525 -47.2425 249° West  Level FlightAware Approximate
Fri 08:10:00 AM 54.6111 -47.4284 249° West  Level FlightAware Approximate
Fri 08:11:00 AM 54.5695 -47.6139 249° West  Level FlightAware Approximate
Fri 08:12:00 AM 54.5275 -47.7990 249° West  Level FlightAware Approximate
Fri 08:13:00 AM 54.4853 -47.9838 249° West  Level FlightAware Approximate
Fri 08:14:00 AM 54.4428 -48.1681 248° West  Level FlightAware Approximate
Fri 08:15:00 AM 54.4000 -48.3521 248° West  Level FlightAware Approximate
Fri 08:16:00 AM 54.3569 -48.5357 248° West  Level FlightAware Approximate
Fri 08:17:00 AM 54.3135 -48.7189 248° West  Level FlightAware Approximate
Fri 08:18:00 AM 54.2699 -48.9018 248° West  Level FlightAware Approximate
Fri 08:19:00 AM 54.2260 -49.0842 248° West  Level FlightAware Approximate
Fri 08:20:00 AM 54.1818 -49.2663 248° West  Level FlightAware Approximate
Fri 08:21:00 AM 54.1374 -49.4479 247° West  Level FlightAware Approximate
Fri 08:22:00 AM 54.0927 -49.6292 247° West  Level FlightAware Approximate
Fri 08:23:00 AM 54.0476 -49.8101 247° West  Level FlightAware Approximate
Fri 08:24:00 AM 54.0024 -49.9906 247° West  Level FlightAware Approximate
Fri 08:25:00 AM 53.9597 -50.1726 248° West  Level FlightAware Approximate
Fri 08:26:00 AM 53.9168 -50.3545 248° West  Level FlightAware Approximate
Fri 08:27:00 AM 53.8737 -50.5359 248° West  Level FlightAware Approximate
Fri 08:28:00 AM 53.8303 -50.7170 248° West  Level FlightAware Approximate
Fri 08:29:00 AM 53.7867 -50.8977 248° West  Level FlightAware Approximate
Fri 08:30:00 AM 53.7427 -51.0780 248° West  Level FlightAware Approximate
Fri 08:31:00 AM 53.6985 -51.2579 248° West  Level FlightAware Approximate
Fri 08:32:00 AM 53.6541 -51.4375 247° West  Level FlightAware Approximate
Fri 08:33:00 AM 53.6093 -51.6167 247° West  Level FlightAware Approximate
Fri 08:34:00 AM 53.5643 -51.7955 247° West  Level FlightAware Approximate
Fri 08:35:00 AM 53.5191 -51.9739 247° West  Level FlightAware Approximate
Fri 08:36:00 AM 53.4749 -52.1529 248° West  Level FlightAware Approximate
Fri 08:36:11 AM 53.2000 -53.6000 247° West 450 518 35,000  Level Gander Center
Fri 08:37:00 AM 53.4305 -52.3316 247° West  Level FlightAware Approximate
Fri 08:37:11 AM 53.1500 -53.8000 247° West 450 518 35,000  Level Gander Center
Fri 08:38:00 AM 53.3859 -52.5099 247° West  Level FlightAware Approximate
Fri 08:38:11 AM 53.0833 -53.9833 239° Southwest 460 529 35,000  Level Gander Center
Fri 08:39:00 AM 53.3410 -52.6879 247° West  Level FlightAware Approximate
Fri 08:39:11 AM 53.0500 -54.1833 255° West 450 518 35,000  Level Gander Center
Fri 08:40:00 AM 53.2959 -52.8654 247° West  Level FlightAware Approximate
Fri 08:40:11 AM 52.9833 -54.3667 239° Southwest 450 518 35,000  Level Gander Center
Fri 08:41:00 AM 53.2505 -53.0426 247° West  Level FlightAware Approximate
Fri 08:41:11 AM 52.9167 -54.5667 241° Southwest 460 529 35,000  Level Gander Center
Fri 08:42:11 AM 52.8667 -54.7333 244° Southwest 450 518 35,000  Level Gander Center
Fri 08:43:11 AM 52.8167 -54.9167 246° West 450 518 35,000  Level Gander Center
Fri 08:44:11 AM 52.7500 -55.1167 241° Southwest 460 529 35,000  Level Gander Center
Fri 08:44:50 AM 52.7167 -55.2500 248° West 460 529 35,000  Level Moncton Center
Fri 08:45:50 AM 52.6333 -55.4000 228° Southwest 460 529 35,000  Level Moncton Center
Fri 08:46:08 AM 52.6167 -55.4667 248° West 450 518 35,000  Level Gander Center
Fri 08:46:50 AM 52.5833 -55.6000 248° West 460 529 35,000  Level Moncton Center
Fri 08:47:11 AM 52.5667 -55.6667 248° West 460 529 35,000  Level Gander Center
Fri 08:48:11 AM 52.4833 -55.8667 236° Southwest 460 529 35,000  Level Gander Center
Fri 08:48:50 AM 52.4500 -55.9667 241° Southwest 460 529 35,000  Level Moncton Center
Fri 08:49:50 AM 52.3833 -56.1333 237° Southwest 460 529 35,000  Level Moncton Center
Fri 08:50:08 AM 52.3667 -56.2167 252° West 460 529 35,000  Level Gander Center
Fri 08:50:50 AM 52.3333 -56.3167 241° Southwest 460 529 35,000  Level Moncton Center
Fri 08:51:11 AM 52.3000 -56.3833 231° Southwest 460 529 35,000  Level Gander Center
Fri 08:52:11 AM 52.2333 -56.5833 242° Southwest 460 529 35,000  Level Gander Center
Fri 08:52:50 AM 52.1833 -56.7000 235° Southwest 470 541 35,000  Level Moncton Center
Fri 08:53:50 AM 52.1167 -56.8667 237° Southwest 470 541 35,000  Level Moncton Center
Fri 08:54:50 AM 52.0667 -57.0500 246° West 460 529 35,000  Level Moncton Center
Fri 08:55:08 AM 52.0333 -57.1167 231° Southwest 460 529 35,000  Level Gander Center
Fri 08:55:50 AM 51.9833 -57.2500 239° Southwest 460 529 35,000  Level Moncton Center
Fri 08:56:50 AM 51.9333 -57.4167 244° Southwest 460 529 35,000  Level Moncton Center
Fri 08:57:08 AM 51.9000 -57.4667 223° Southwest 450 518 35,000  Level Gander Center
Fri 08:57:50 AM 51.8667 -57.5833 245° Southwest 440 506 35,000  Level Moncton Center
Fri 08:58:11 AM 51.8333 -57.6500 231° Southwest 450 518 35,000  Level Gander Center
Fri 08:59:11 AM 51.7667 -57.8000 234° Southwest 450 518 35,000  Level Gander Center
Fri 09:00:11 AM 51.7167 -57.9833 246° West 440 506 35,000  Level Gander Center
Fri 09:01:11 AM 51.6500 -58.1500 237° Southwest 440 506 35,000 303 Level Gander Center
Fri 09:01:50 AM 51.6000 -58.2167 220° Southwest 410 472 35,500  Climbing Moncton Center
Fri 09:02:50 AM 51.5333 -58.4167 242° Southwest 440 506 35,000 -370 Descending Moncton Center
Fri 09:03:11 AM 51.5000 -58.4833 231° Southwest 440 506 35,000  Level Gander Center
Fri 09:04:11 AM 51.4500 -58.6333 242° Southwest 440 506 35,000  Level Gander Center
Fri 09:05:11 AM 51.3833 -58.8167 240° Southwest 450 518 35,000  Level Gander Center
Fri 09:06:11 AM 51.3167 -58.9833 237° Southwest 440 506 35,000  Level Gander Center
Fri 09:07:11 AM 51.2333 -59.1500 231° Southwest 450 518 35,000  Level Gander Center
Fri 09:08:11 AM 51.1667 -59.3000 235° Southwest 450 518 35,000  Level Gander Center
Fri 09:09:11 AM 51.1167 -59.4667 245° Southwest 450 518 35,000  Level Gander Center
Fri 09:10:11 AM 51.0500 -59.6333 238° Southwest 440 506 35,000  Level Gander Center
Fri 09:11:11 AM 50.9833 -59.8000 238° Southwest 440 506 35,000  Level Gander Center
Fri 09:12:11 AM 50.9167 -59.9500 235° Southwest 440 506 35,000  Level Gander Center
Fri 09:13:11 AM 50.8333 -60.1167 232° Southwest 440 506 35,000  Level Gander Center
Fri 09:14:11 AM 50.7667 -60.2833 238° Southwest 430 495 35,000  Level Gander Center
Fri 09:15:11 AM 50.7000 -60.4333 235° Southwest 440 506 35,000  Level Gander Center
Fri 09:16:11 AM 50.6333 -60.6000 238° Southwest 430 495 35,000 -423 Level Gander Center
Fri 09:17:33 AM 50.5500 -60.8167 239° Southwest 400 460 34,000  Descending Gander Center
Fri 09:18:33 AM 50.4833 -60.9667 235° Southwest 450 518 35,000 500 Climbing Gander Center
Fri 09:19:33 AM 50.4167 -61.1000 232° Southwest 430 495 35,000  Level Gander Center
Fri 09:20:33 AM 50.3333 -61.2833 235° Southwest 430 495 35,000  Level Gander Center
Fri 09:22:22 AM 50.2333 -61.5500 240° Southwest 420 483 35,000  Level Moncton Center
Fri 09:23:22 AM 50.1500 -61.7000 229° Southwest 420 483 35,000  Level Moncton Center
Fri 09:24:22 AM 50.0833 -61.8333 232° Southwest 420 483 35,000  Level Moncton Center
Fri 09:25:22 AM 50.0167 -62.0000 238° Southwest 420 483 35,000  Level Moncton Center
Fri 09:26:22 AM 49.9500 -62.1333 232° Southwest 410 472 35,000  Level Moncton Center
Fri 09:27:22 AM 49.8667 -62.3000 232° Southwest 420 483 35,000  Level Moncton Center
Fri 09:28:22 AM 49.8167 -62.4333 240° Southwest 420 483 35,000  Level Moncton Center
Fri 09:29:22 AM 49.7500 -62.5833 236° Southwest 420 483 35,000  Level Moncton Center
Fri 09:30:22 AM 49.6833 -62.7333 236° Southwest 410 472 35,000  Level Moncton Center
Fri 09:31:22 AM 49.6167 -62.8667 232° Southwest 410 472 35,000  Level Moncton Center
Fri 09:32:23 AM 49.5500 -63.0333 238° Southwest 400 460 35,000  Level Moncton Center
Fri 09:33:23 AM 49.4833 -63.1667 232° Southwest 410 472 35,000  Level Moncton Center
Fri 09:34:23 AM 49.4167 -63.3167 236° Southwest 410 472 35,000  Level Moncton Center
Fri 09:35:23 AM 49.3500 -63.4167 224° Southwest 390 449 35,000  Level Moncton Center
Fri 09:36:23 AM 49.2833 -63.5500 233° Southwest 390 449 35,000  Level Moncton Center
Fri 09:37:23 AM 49.2167 -63.7000 236° Southwest 390 449 35,000  Level Moncton Center
Fri 09:38:23 AM 49.1500 -63.8333 233° Southwest 380 437 35,000  Level Moncton Center
Fri 09:39:23 AM 49.1000 -63.9667 240° Southwest 380 437 35,000  Level Moncton Center
Fri 09:41:23 AM 48.9667 -64.2167 231° Southwest 370 426 35,000  Level Moncton Center
Fri 09:42:23 AM 48.9000 -64.3500 233° Southwest 370 426 35,000  Level Moncton Center
Fri 09:43:23 AM 48.8500 -64.4500 233° Southwest 370 426 35,000  Level Moncton Center
Fri 09:44:23 AM 48.7833 -64.6000 236° Southwest 380 437 35,000  Level Moncton Center
Fri 09:46:23 AM 48.6667 -64.8333 233° Southwest 370 426 35,000  Level Moncton Center
Fri 09:47:23 AM 48.6000 -64.9500 229° Southwest 370 426 35,000  Level Moncton Center
Fri 09:48:23 AM 48.5333 -65.0833 233° Southwest 370 426 35,000  Level Moncton Center
Fri 09:49:23 AM 48.4667 -65.2000 229° Southwest 380 437 35,000  Level Moncton Center
Fri 09:50:23 AM 48.4000 -65.3333 233° Southwest 370 426 35,000  Level Moncton Center
Fri 09:51:23 AM 48.3500 -65.4500 237° Southwest 380 437 35,000  Level Moncton Center
Fri 09:52:23 AM 48.2833 -65.5833 233° Southwest 380 437 35,000  Level Moncton Center
Fri 09:53:23 AM 48.2167 -65.7000 229° Southwest 380 437 35,000  Level Moncton Center
Fri 09:54:23 AM 48.1500 -65.8333 233° Southwest 380 437 35,000  Level Moncton Center
Fri 09:55:23 AM 48.0833 -65.9333 225° Southwest 370 426 35,000  Level Moncton Center
Fri 09:56:23 AM 48.0167 -66.0667 233° Southwest 380 437 35,000  Level Moncton Center
Fri 09:58:22 AM 47.9169 -66.3114 239° Southwest 398 458 35,000  Level Boston Center
Fri 09:59:23 AM 47.8542 -66.4297 232° Southwest 377 434 35,000  Level Boston Center
Fri 10:00:24 AM 47.8050 -66.5250 232° Southwest 371 427 35,000  Level Boston Center
Fri 10:01:23 AM 47.7000 -66.6833 225° Southwest 360 414 35,000  Level Moncton Center
Fri 10:02:23 AM 47.6333 -66.8000 230° Southwest 370 426 35,000 250 Level Moncton Center
Fri 10:03:23 AM 47.5667 -66.9000 225° Southwest 370 426 35,500  Climbing Moncton Center
Fri 10:04:23 AM 47.5000 -67.0167 230° Southwest 370 426 35,000 -250 Descending Moncton Center
Fri 10:05:23 AM 47.4500 -67.1500 241° Southwest 370 426 35,000  Level Moncton Center
Fri 10:06:23 AM 47.3833 -67.2667 230° Southwest 370 426 35,000  Level Moncton Center
Fri 10:07:23 AM 47.3167 -67.3833 230° Southwest 370 426 35,000  Level Moncton Center
Fri 10:08:22 AM 47.2600 -67.4894 232° Southwest 376 433 35,000  Level Boston Center
Fri 10:09:23 AM 47.1917 -67.6025 228° Southwest 376 433 35,000  Level Boston Center
Fri 10:10:23 AM 47.1000 -67.7500 228° Southwest 390 449 35,000  Level Moncton Center
Fri 10:11:22 AM 47.0333 -67.8667 230° Southwest 380 437 35,000  Level Moncton Center
Fri 10:12:22 AM 46.9764 -67.9528 226° Southwest 387 445 35,000  Level Boston Center
Fri 10:13:22 AM 46.8964 -68.0900 230° Southwest 395 455 35,000  Level Boston Center
Fri 10:14:22 AM 46.8275 -68.2044 229° Southwest 402 463 35,000  Level Boston Center
Fri 10:15:23 AM 46.7567 -68.3192 228° Southwest 397 457 35,000  Level Boston Center
Fri 10:16:22 AM 46.6878 -68.4331 229° Southwest 384 442 35,000  Level Boston Center
Fri 10:17:24 AM 46.6164 -68.5381 225° Southwest 378 435 35,000  Level Boston Center
Fri 10:18:25 AM 46.5475 -68.6603 231° Southwest 378 435 35,000  Level Boston Center
Fri 10:19:24 AM 46.4861 -68.7581 228° Southwest 378 435 35,000  Level Boston Center
Fri 10:20:25 AM 46.4167 -68.8739 229° Southwest 383 441 35,000  Level Boston Center
Fri 10:21:22 AM 46.3167 -69.0000 221° Southwest 380 437 35,000  Level Moncton Center
Fri 10:22:22 AM 46.2500 -69.1167 230° Southwest 380 437 35,000  Level Moncton Center
Fri 10:23:22 AM 46.1833 -69.2167 226° Southwest 380 437 35,000  Level Moncton Center
Fri 10:24:22 AM 46.1167 -69.3167 226° Southwest 370 426 35,000  Level Moncton Center
Fri 10:25:22 AM 46.0500 -69.4333 231° Southwest 370 426 35,000  Level Moncton Center
Fri 10:26:23 AM 45.9897 -69.5461 232° Southwest 377 434 35,000  Level Boston Center
Fri 10:27:22 AM 45.9275 -69.6478 229° Southwest 377 434 35,000  Level Boston Center
Fri 10:28:22 AM 45.8572 -69.7586 228° Southwest 377 434 35,000  Level Boston Center
Fri 10:29:22 AM 45.7867 -69.8658 227° Southwest 377 434 35,000  Level Boston Center
Fri 10:30:23 AM 45.7142 -69.9792 228° Southwest 382 440 35,000  Level Boston Center
Fri 10:31:23 AM 45.6328 -70.0717 218° Southwest 382 440 35,000  Level Boston Center
Fri 10:32:24 AM 45.5144 -70.0886 186° South 387 445 35,000  Level Boston Center
Fri 10:33:23 AM 45.3914 -70.0847 179° South 412 474 35,000  Level Boston Center
Fri 10:34:23 AM 45.2775 -70.1189 192° South 425 489 35,000  Level Boston Center
Fri 10:35:24 AM 45.2003 -70.2192 222° Southwest 382 440 35,000  Level Boston Center
Fri 10:36:22 AM 45.1358 -70.3364 232° Southwest 377 434 35,000  Level Boston Center
Fri 10:37:23 AM 45.0714 -70.4533 232° Southwest 377 434 35,000  Level Boston Center
Fri 10:38:23 AM 45.0044 -70.5700 231° Southwest 384 442 35,000  Level Boston Center
Fri 10:39:24 AM 44.9397 -70.6836 231° Southwest 384 442 35,000  Level Boston Center
Fri 10:40:25 AM 44.8747 -70.7969 231° Southwest 379 436 35,000  Level Boston Center
Fri 10:41:23 AM 44.8094 -70.9128 232° Southwest 379 436 35,000  Level Boston Center
Fri 10:42:24 AM 44.7422 -71.0314 231° Southwest 384 442 35,000  Level Boston Center
Fri 10:43:22 AM 44.6769 -71.1439 231° Southwest 384 442 35,000  Level Boston Center
Fri 10:44:23 AM 44.6033 -71.2708 231° Southwest 384 442 35,000  Level Boston Center
Fri 10:45:25 AM 44.5356 -71.3858 230° Southwest 389 448 35,000  Level Boston Center
Fri 10:46:22 AM 44.4911 -71.5175 245° Southwest 370 426 35,000  Level Boston Center
Fri 10:47:22 AM 44.5169 -71.6483 286° West 357 411 35,000  Level Boston Center
Fri 10:48:22 AM 44.5325 -71.7967 278° West 370 426 35,000 -446 Level Boston Center
Fri 10:49:23 AM 44.4789 -71.9308 241° Southwest 350 403 34,100 -500 Descending Boston Center
Fri 10:50:22 AM 44.4022 -72.0275 222° Southwest 384 442 34,000 -50 Descending Boston Center
Fri 10:51:23 AM 44.3214 -72.1325 223° Southwest 394 453 34,000  Level Boston Center
Fri 10:52:24 AM 44.2425 -72.2431 225° Southwest 399 459 34,000  Level Boston Center
Fri 10:53:24 AM 44.1633 -72.3503 224° Southwest 405 466 34,000  Level Boston Center
Fri 10:54:25 AM 44.0842 -72.4575 224° Southwest 405 466 34,000  Level Boston Center
Fri 10:55:23 AM 44.0028 -72.5642 223° Southwest 405 466 34,000  Level Boston Center
Fri 10:56:23 AM 43.9236 -72.6708 224° Southwest 400 460 34,000  Level Boston Center
Fri 10:57:23 AM 43.8336 -72.7883 223° Southwest 405 466 34,000  Level Boston Center
Fri 10:58:24 AM 43.7542 -72.8942 224° Southwest 400 460 34,000  Level Boston Center
Fri 10:59:24 AM 43.6786 -72.9883 222° Southwest 400 460 34,000  Level Boston Center
Fri 11:00:22 AM 43.5906 -73.1050 224° Southwest 400 460 34,000 -50 Level Boston Center
Fri 11:01:23 AM 43.5106 -73.2131 224° Southwest 400 460 33,900 -1,279 Descending Boston Center
Fri 11:02:24 AM 43.4286 -73.3150 222° Southwest 400 460 31,400 -2,622 Descending Boston Center
Fri 11:03:22 AM 43.3486 -73.4222 224° Southwest 405 466 28,700 -2,579 Descending Boston Center
Fri 11:04:25 AM 43.2664 -73.5236 222° Southwest 405 466 26,200 -2,250 Descending Boston Center
Fri 11:05:22 AM 43.2011 -73.6022 221° Southwest 405 466 24,200 -2,136 Descending Boston Center
Fri 11:06:23 AM 43.0794 -73.6681 202° Southwest 388 447 22,000 -1,934 Descending Boston Center
Fri 11:07:23 AM 42.9811 -73.7058 196° South 388 447 20,300 -1,636 Descending Boston Center
Fri 11:08:24 AM 42.8972 -73.7408 197° South 366 421 18,700 -1,563 Descending Boston Center
Fri 11:09:22 AM 42.8094 -73.7817 199° South 352 405 17,200 -1,361 Descending Boston Center
Fri 11:10:23 AM 42.7108 -73.8247 198° South 342 394 16,000 -590 Descending Boston Center
Fri 11:11:24 AM 42.6250 -73.8622 198° South 337 388 16,000  Level Boston Center
Fri 11:12:22 AM 42.5389 -73.8969 197° South 323 372 16,000  Level Boston Center
Fri 11:13:22 AM 42.4636 -73.9317 199° South 323 372 16,000  Level Boston Center
Fri 11:14:24 AM 42.3733 -73.9717 198° South 323 372 16,000  Level Boston Center
Fri 11:15:22 AM 42.2958 -74.0036 197° South 323 372 16,000  Level Boston Center
Fri 11:16:22 AM 42.2014 -74.0461 198° South 328 377 16,000 -50 Level Boston Center
Fri 11:17:22 AM 42.1258 -74.0806 199° South 328 377 15,900  Descending Boston Center
Fri 11:18:23 AM 42.0442 -74.1175 199° South 323 372 16,000 49 Climbing Boston Center
Fri 11:19:24 AM 41.9706 -74.1489 198° South 276 318 16,000  Level Boston Center
Fri 11:20:24 AM 41.9097 -74.1753 198° South 260 299 16,000  Level Boston Center
Fri 11:21:22 AM 41.8364 -74.2094 199° South 255 293 16,000 -454 Level Boston Center
Fri 11:22:23 AM 41.7856 -74.2553 214° Southwest 250 288 15,100 -1,082 Descending Boston Center
Fri 11:23:24 AM 41.7322 -74.3261 225° Southwest 245 282 13,800 -1,160 Descending Boston Center
Fri 11:24:22 AM 41.6758 -74.3439 193° South 232 267 12,800 -1,311 Descending Boston Center
Fri 11:25:23 AM 41.6050 -74.3392 177° South 232 267 11,200 -1,377 Descending Boston Center
Fri 11:26:24 AM 41.5425 -74.3372 179° South 243 280 10,000 -1,388 Descending Boston Center
Fri 11:27:24 AM 41.4753 -74.3631 196° South 237 273 8,400 -887 Descending Boston Center
Fri 11:29:47 AM 41.3333 -74.4333 200° South 228 262 7,000 -414 Descending New York TRACON
Fri 11:30:47 AM 41.2667 -74.4500 191° South 242 278 7,000  Level New York TRACON
Fri 11:31:47 AM 41.2000 -74.4833 201° Southwest 242 278 7,000  Level New York TRACON
Fri 11:32:41 AM 41.1500 -74.5000 194° South 241 277 7,000  Level New York TRACON
Fri 11:33:41 AM 41.0833 -74.5333 201° Southwest 247 284 7,000  Level New York TRACON
Fri 11:34:41 AM 41.0000 -74.5500 189° South 254 292 7,000 -350 Level New York TRACON
Fri 11:35:41 AM 40.9333 -74.5500 180° South 252 290 6,300 -526 Descending New York TRACON
Fri 11:36:35 AM 40.8833 -74.5500 180° South 241 277 6,000 -105 Descending New York TRACON
Fri 11:37:35 AM 40.8167 -74.5500 180° South 247 284 6,100  Climbing New York TRACON
Fri 11:38:35 AM 40.7500 -74.5500 180° South 247 284 6,000 -500 Descending New York TRACON
Fri 11:39:35 AM 40.6833 -74.5500 180° South 243 280 5,100 -762 Descending New York TRACON
Fri 11:40:41 AM 40.6000 -74.5167 163° South 255 293 4,400 -952 Descending New York TRACON
Fri 11:41:41 AM 40.5667 -74.4500 123° Southeast 249 287 3,100 -1,200 Descending New York TRACON
Fri 11:42:41 AM 40.5167 -74.4000 143° Southeast 230 265 2,000 -526 Descending New York TRACON
Fri 11:43:35 AM 40.4833 -74.3500 131° Southeast 191 220 2,100 111 Climbing New York TRACON

Login

Don't have an account? Register now (free) for customized features, flight alerts, and more!